Aérodrome :
LOGIN :

S'inscrire | Disclaimer

   EN    FR    IT 

 










Légende :    VFR   VFR Marginal   IFR   IFR Intensif   IFR Très Intensif
Visi : 
Plafond : 
>= 8 km
>= 3000ft
5 à 8 km
1000 à 3000 ft
1500m à 5 km
500 à 1000 ft
800 à 1500m
200 à 500 ft
< 800m
< 200 ft
Symboles :   Orages  Brouillard  Fortes neiges  Fortes précipitations  Vent > 20 kt
SIGMETs :   Divers  Orages  Givrage  Turbulence  Onde Orograph.  Cendres Volcan.







- Altitude de l'aérodrome : 200 ft


EBBL - Klein Brogel AB

DERNIER METAR :
  • 281725Z 23005KT 9999 FEW060 SCT240 18/04 Q1021 BLU BLU

METARs EXPIRÉS :
  • 281655Z 24009KT 9999 FEW065 SCT240 19/04 Q1021 BLU BLU
  • 281625Z 25010KT 9999 FEW060 19/03 Q1021 BLU BLU
  • 281555Z 23009KT 9999 FEW060 20/03 Q1021 BLU BLU
  • 281525Z 26012KT 9999 FEW060 20/04 Q1021 BLU BLU
  • 281455Z 25012KT 9999 FEW060 SCT240 20/05 Q1021 BLU BLU

TAF TAF EBBL
Valide du 28 à 13h jusqu'au 28 à 22h UTC


281144Z 2813/2822 22010KT 9999 SKC
BECMG 2816/2818 24010KT 9999 FEW025
PROB30
TEMPO 2819/2821 25010KT 7000 -SHRA SCT030
Pas de NOTAMs connus pour ce terrain.



MET'MAP, la Météo Aéronautique d'un coup d'oeil ! - Copyright ORBIFLY Décembre 2007 - Disclaimer

ORBIFLY MET'MAP TEAM :

Programmation & Développement : Alexandra Zaïnal
Conception & Développement : Baudouin d'Aumeries
Co-Programmation & Développement : Marc-Olivier Méhu
Soutien technique & logistique : Manuel Goepfert

Contact : metmap@orbifly.com




SOURCES & CREDITS :

   NOAA